sensor_id;sensor_type;location;lat;lon;timestamp;pressure;altitude;pressure_sealevel;temperature;humidity
78168;BME280;67410;42.698;23.378;2024-01-16T00:00:57;94112.31;;;1.46;76.70
78168;BME280;67410;42.698;23.378;2024-01-16T00:03:23;94133.50;;;1.56;76.72
78168;BME280;67410;42.698;23.378;2024-01-16T00:05:49;94130.09;;;1.56;75.65
78168;BME280;67410;42.698;23.378;2024-01-16T00:08:15;94132.22;;;1.32;77.20
78168;BME280;67410;42.698;23.378;2024-01-16T00:10:42;94133.66;;;1.48;76.80
78168;BME280;67410;42.698;23.378;2024-01-16T00:13:09;94120.25;;;1.38;77.10
78168;BME280;67410;42.698;23.378;2024-01-16T00:15:35;94150.47;;;1.59;76.58
78168;BME280;67410;42.698;23.378;2024-01-16T00:18:01;94148.88;;;1.64;76.18
78168;BME280;67410;42.698;23.378;2024-01-16T00:20:27;94146.88;;;1.66;76.08
78168;BME280;67410;42.698;23.378;2024-01-16T00:22:53;94145.91;;;1.67;78.06
78168;BME280;67410;42.698;23.378;2024-01-16T00:25:20;94155.50;;;1.74;77.28
78168;BME280;67410;42.698;23.378;2024-01-16T00:27:46;94153.13;;;1.79;77.36
78168;BME280;67410;42.698;23.378;2024-01-16T00:30:12;94168.16;;;1.96;76.44
78168;BME280;67410;42.698;23.378;2024-01-16T00:32:39;94163.34;;;1.87;76.53
78168;BME280;67410;42.698;23.378;2024-01-16T00:35:05;94167.72;;;1.80;76.20
78168;BME280;67410;42.698;23.378;2024-01-16T00:37:31;94163.94;;;1.82;77.16
78168;BME280;67410;42.698;23.378;2024-01-16T00:39:57;94154.16;;;1.84;77.41
78168;BME280;67410;42.698;23.378;2024-01-16T00:42:24;94168.53;;;1.87;77.83
78168;BME280;67410;42.698;23.378;2024-01-16T00:44:50;94152.78;;;1.88;78.14
78168;BME280;67410;42.698;23.378;2024-01-16T00:47:16;94151.16;;;1.94;78.40
78168;BME280;67410;42.698;23.378;2024-01-16T00:49:42;94154.94;;;1.85;78.60
78168;BME280;67410;42.698;23.378;2024-01-16T00:52:09;94167.53;;;1.88;79.53
78168;BME280;67410;42.698;23.378;2024-01-16T00:54:35;94162.97;;;1.90;80.15
78168;BME280;67410;42.698;23.378;2024-01-16T00:57:02;94175.75;;;1.98;79.64
78168;BME280;67410;42.698;23.378;2024-01-16T00:59:28;94165.16;;;1.99;79.50
78168;BME280;67410;42.698;23.378;2024-01-16T01:01:54;94167.94;;;1.98;80.86
78168;BME280;67410;42.698;23.378;2024-01-16T01:04:20;94172.41;;;2.17;79.94
78168;BME280;67410;42.698;23.378;2024-01-16T01:06:46;94199.41;;;2.36;79.36
78168;BME280;67410;42.698;23.378;2024-01-16T01:09:12;94194.38;;;2.15;80.26
78168;BME280;67410;42.698;23.378;2024-01-16T01:11:39;94192.75;;;2.07;80.26
78168;BME280;67410;42.698;23.378;2024-01-16T01:14:05;94201.97;;;2.23;79.91
78168;BME280;67410;42.698;23.378;2024-01-16T01:16:31;94198.38;;;2.24;79.18
78168;BME280;67410;42.698;23.378;2024-01-16T01:18:57;94191.97;;;2.20;78.79
78168;BME280;67410;42.698;23.378;2024-01-16T01:21:25;94189.94;;;2.02;79.79
78168;BME280;67410;42.698;23.378;2024-01-16T01:23:51;94180.78;;;2.19;78.57
78168;BME280;67410;42.698;23.378;2024-01-16T01:26:17;94166.00;;;2.13;79.44
78168;BME280;67410;42.698;23.378;2024-01-16T01:28:46;94174.16;;;2.03;79.39
78168;BME280;67410;42.698;23.378;2024-01-16T01:31:12;94180.00;;;2.25;79.48
78168;BME280;67410;42.698;23.378;2024-01-16T01:33:39;94173.19;;;2.24;78.96
78168;BME280;67410;42.698;23.378;2024-01-16T01:36:05;94172.91;;;1.93;80.14
78168;BME280;67410;42.698;23.378;2024-01-16T01:38:32;94185.34;;;2.04;79.22
78168;BME280;67410;42.698;23.378;2024-01-16T01:40:58;94180.00;;;2.19;78.71
78168;BME280;67410;42.698;23.378;2024-01-16T01:43:25;94162.78;;;2.04;78.97
78168;BME280;67410;42.698;23.378;2024-01-16T01:46:09;94161.41;;;2.22;78.28
78168;BME280;67410;42.698;23.378;2024-01-16T01:48:38;94169.00;;;2.17;78.76
78168;BME280;67410;42.698;23.378;2024-01-16T01:51:06;94174.41;;;2.28;78.23
78168;BME280;67410;42.698;23.378;2024-01-16T01:53:33;94185.78;;;2.21;79.15
78168;BME280;67410;42.698;23.378;2024-01-16T01:56:08;94176.78;;;2.23;79.47
78168;BME280;67410;42.698;23.378;2024-01-16T01:58:36;94201.97;;;2.16;79.16
78168;BME280;67410;42.698;23.378;2024-01-16T02:01:05;94159.63;;;2.16;78.89
78168;BME280;67410;42.698;23.378;2024-01-16T02:03:39;94171.59;;;2.23;78.16
78168;BME280;67410;42.698;23.378;2024-01-16T02:06:06;94186.16;;;2.04;79.05
78168;BME280;67410;42.698;23.378;2024-01-16T02:08:33;94191.56;;;2.10;78.60
78168;BME280;67410;42.698;23.378;2024-01-16T02:10:59;94174.19;;;2.23;77.94
78168;BME280;67410;42.698;23.378;2024-01-16T02:13:25;94169.00;;;2.23;75.37
78168;BME280;67410;42.698;23.378;2024-01-16T02:15:51;94197.03;;;2.41;77.00
78168;BME280;67410;42.698;23.378;2024-01-16T02:18:17;94194.41;;;2.41;77.20
78168;BME280;67410;42.698;23.378;2024-01-16T02:20:44;94183.59;;;2.31;77.05
78168;BME280;67410;42.698;23.378;2024-01-16T02:23:13;94187.19;;;2.30;76.25
78168;BME280;67410;42.698;23.378;2024-01-16T02:25:41;94204.22;;;2.59;75.99
78168;BME280;67410;42.698;23.378;2024-01-16T02:28:07;94194.22;;;2.49;76.82
78168;BME280;67410;42.698;23.378;2024-01-16T02:30:33;94205.41;;;2.50;76.30
78168;BME280;67410;42.698;23.378;2024-01-16T02:33:00;94213.59;;;2.53;76.60
78168;BME280;67410;42.698;23.378;2024-01-16T02:35:26;94230.41;;;2.57;76.78
78168;BME280;67410;42.698;23.378;2024-01-16T02:37:52;94218.63;;;2.61;77.70
78168;BME280;67410;42.698;23.378;2024-01-16T02:40:18;94214.78;;;2.51;78.11
78168;BME280;67410;42.698;23.378;2024-01-16T02:42:45;94219.78;;;2.52;77.61
78168;BME280;67410;42.698;23.378;2024-01-16T02:45:11;94224.59;;;2.42;78.29
78168;BME280;67410;42.698;23.378;2024-01-16T02:47:37;94237.19;;;2.52;78.27
78168;BME280;67410;42.698;23.378;2024-01-16T02:50:03;94245.38;;;2.55;78.27
78168;BME280;67410;42.698;23.378;2024-01-16T02:52:31;94261.38;;;2.52;77.47
78168;BME280;67410;42.698;23.378;2024-01-16T02:54:57;94260.75;;;2.44;77.98
78168;BME280;67410;42.698;23.378;2024-01-16T02:57:23;94286.72;;;2.50;78.07
78168;BME280;67410;42.698;23.378;2024-01-16T02:59:49;94290.56;;;2.61;77.54
78168;BME280;67410;42.698;23.378;2024-01-16T03:02:15;94292.53;;;2.52;77.94
78168;BME280;67410;42.698;23.378;2024-01-16T03:04:41;94297.34;;;2.55;78.05
78168;BME280;67410;42.698;23.378;2024-01-16T03:07:07;94301.38;;;2.64;77.28
78168;BME280;67410;42.698;23.378;2024-01-16T03:09:34;94314.19;;;2.72;76.84
78168;BME280;67410;42.698;23.378;2024-01-16T03:12:00;94312.56;;;2.65;77.31
78168;BME280;67410;42.698;23.378;2024-01-16T03:14:26;94322.09;;;2.51;77.26
78168;BME280;67410;42.698;23.378;2024-01-16T03:16:52;94321.72;;;2.54;77.34
78168;BME280;67410;42.698;23.378;2024-01-16T03:19:18;94328.78;;;2.67;77.74
78168;BME280;67410;42.698;23.378;2024-01-16T03:21:44;94334.56;;;2.76;80.24
78168;BME280;67410;42.698;23.378;2024-01-16T03:24:10;94339.16;;;2.73;81.44
78168;BME280;67410;42.698;23.378;2024-01-16T03:26:36;94351.84;;;2.96;84.30
78168;BME280;67410;42.698;23.378;2024-01-16T03:29:06;94358.25;;;3.20;86.73
78168;BME280;67410;42.698;23.378;2024-01-16T03:31:32;94356.44;;;3.14;87.84
78168;BME280;67410;42.698;23.378;2024-01-16T03:33:58;94353.66;;;3.29;88.35
78168;BME280;67410;42.698;23.378;2024-01-16T03:36:24;94369.69;;;3.39;88.61
78168;BME280;67410;42.698;23.378;2024-01-16T03:38:50;94389.31;;;3.42;87.85
78168;BME280;67410;42.698;23.378;2024-01-16T03:41:17;94392.09;;;3.40;87.95
78168;BME280;67410;42.698;23.378;2024-01-16T03:43:43;94399.88;;;3.33;88.82
78168;BME280;67410;42.698;23.378;2024-01-16T03:46:11;94389.88;;;3.17;88.53
78168;BME280;67410;42.698;23.378;2024-01-16T03:48:37;94405.06;;;3.14;89.25
78168;BME280;67410;42.698;23.378;2024-01-16T03:51:03;94412.44;;;3.03;89.23
78168;BME280;67410;42.698;23.378;2024-01-16T03:53:29;94419.25;;;2.98;89.29
78168;BME280;67410;42.698;23.378;2024-01-16T03:55:57;94427.44;;;3.08;87.61
78168;BME280;67410;42.698;23.378;2024-01-16T03:58:23;94422.84;;;3.03;86.87
78168;BME280;67410;42.698;23.378;2024-01-16T04:00:49;94433.84;;;3.05;85.42
78168;BME280;67410;42.698;23.378;2024-01-16T04:03:17;94448.44;;;3.00;84.67
78168;BME280;67410;42.698;23.378;2024-01-16T04:05:43;94444.78;;;2.88;83.92
78168;BME280;67410;42.698;23.378;2024-01-16T04:08:09;94451.44;;;2.97;83.30
78168;BME280;67410;42.698;23.378;2024-01-16T04:10:36;94462.22;;;2.94;82.78
78168;BME280;67410;42.698;23.378;2024-01-16T04:13:03;94472.59;;;2.87;83.01
78168;BME280;67410;42.698;23.378;2024-01-16T04:15:29;94474.72;;;2.77;83.46
78168;BME280;67410;42.698;23.378;2024-01-16T04:17:55;94463.72;;;2.75;82.39
78168;BME280;67410;42.698;23.378;2024-01-16T04:20:21;94479.13;;;2.77;82.34
78168;BME280;67410;42.698;23.378;2024-01-16T04:22:47;94491.34;;;2.83;82.53
78168;BME280;67410;42.698;23.378;2024-01-16T04:25:15;94492.72;;;2.72;82.88
78168;BME280;67410;42.698;23.378;2024-01-16T04:27:41;94503.31;;;2.70;82.82
78168;BME280;67410;42.698;23.378;2024-01-16T04:30:08;94513.09;;;2.68;82.37
78168;BME280;67410;42.698;23.378;2024-01-16T04:32:34;94513.47;;;2.65;82.24
78168;BME280;67410;42.698;23.378;2024-01-16T04:35:00;94523.28;;;2.70;81.82
78168;BME280;67410;42.698;23.378;2024-01-16T04:37:26;94508.84;;;2.61;81.48
78168;BME280;67410;42.698;23.378;2024-01-16T04:39:52;94519.03;;;2.62;80.98
78168;BME280;67410;42.698;23.378;2024-01-16T04:42:19;94507.41;;;2.58;81.27
78168;BME280;67410;42.698;23.378;2024-01-16T04:44:46;94526.47;;;2.65;80.86
78168;BME280;67410;42.698;23.378;2024-01-16T04:47:12;94526.84;;;2.62;80.40
78168;BME280;67410;42.698;23.378;2024-01-16T04:49:38;94530.94;;;2.50;80.88
78168;BME280;67410;42.698;23.378;2024-01-16T04:52:04;94548.94;;;2.52;80.39
78168;BME280;67410;42.698;23.378;2024-01-16T04:54:30;94567.28;;;2.44;80.71
78168;BME280;67410;42.698;23.378;2024-01-16T04:56:57;94577.69;;;2.44;80.14
78168;BME280;67410;42.698;23.378;2024-01-16T04:59:23;94582.47;;;2.47;79.58
78168;BME280;67410;42.698;23.378;2024-01-16T05:01:50;94590.97;;;2.34;80.04
78168;BME280;67410;42.698;23.378;2024-01-16T05:04:17;94600.38;;;2.35;80.13
78168;BME280;67410;42.698;23.378;2024-01-16T05:06:43;94605.69;;;2.27;81.04
78168;BME280;67410;42.698;23.378;2024-01-16T05:09:09;94613.44;;;2.20;80.78
78168;BME280;67410;42.698;23.378;2024-01-16T05:11:35;94609.19;;;2.13;81.42
78168;BME280;67410;42.698;23.378;2024-01-16T05:14:01;94612.06;;;2.03;80.99
78168;BME280;67410;42.698;23.378;2024-01-16T05:16:27;94629.19;;;1.97;81.30
78168;BME280;67410;42.698;23.378;2024-01-16T05:18:54;94634.38;;;1.97;81.14
78168;BME280;67410;42.698;23.378;2024-01-16T05:21:20;94634.00;;;2.00;80.92
78168;BME280;67410;42.698;23.378;2024-01-16T05:23:47;94646.28;;;1.92;81.23
78168;BME280;67410;42.698;23.378;2024-01-16T05:26:14;94644.38;;;1.79;81.01
78168;BME280;67410;42.698;23.378;2024-01-16T05:28:40;94668.63;;;1.86;81.42
78168;BME280;67410;42.698;23.378;2024-01-16T05:31:06;94667.91;;;1.78;81.38
78168;BME280;67410;42.698;23.378;2024-01-16T05:33:33;94681.25;;;1.89;81.55
78168;BME280;67410;42.698;23.378;2024-01-16T05:35:59;94690.50;;;1.98;80.56
78168;BME280;67410;42.698;23.378;2024-01-16T05:38:25;94696.25;;;1.94;81.33
78168;BME280;67410;42.698;23.378;2024-01-16T05:40:51;94701.59;;;1.92;80.94
78168;BME280;67410;42.698;23.378;2024-01-16T05:43:17;94708.91;;;1.82;81.33
78168;BME280;67410;42.698;23.378;2024-01-16T05:45:44;94716.78;;;1.74;81.36
78168;BME280;67410;42.698;23.378;2024-01-16T05:48:10;94728.69;;;1.83;81.20
78168;BME280;67410;42.698;23.378;2024-01-16T05:50:37;94736.63;;;1.82;80.47
78168;BME280;67410;42.698;23.378;2024-01-16T05:53:03;94755.06;;;1.72;80.46
78168;BME280;67410;42.698;23.378;2024-01-16T05:55:29;94765.97;;;1.67;80.75
78168;BME280;67410;42.698;23.378;2024-01-16T05:57:58;94764.28;;;1.75;80.07
78168;BME280;67410;42.698;23.378;2024-01-16T06:00:27;94774.22;;;1.71;80.44
78168;BME280;67410;42.698;23.378;2024-01-16T06:02:53;94782.81;;;1.72;80.07
78168;BME280;67410;42.698;23.378;2024-01-16T06:05:19;94787.53;;;1.68;80.04
78168;BME280;67410;42.698;23.378;2024-01-16T06:07:45;94798.28;;;1.80;79.56
78168;BME280;67410;42.698;23.378;2024-01-16T06:10:12;94798.75;;;1.83;78.50
78168;BME280;67410;42.698;23.378;2024-01-16T06:12:42;94800.00;;;1.87;78.71
78168;BME280;67410;42.698;23.378;2024-01-16T06:15:08;94809.56;;;2.01;77.40
78168;BME280;67410;42.698;23.378;2024-01-16T06:17:37;94825.06;;;1.80;78.52
78168;BME280;67410;42.698;23.378;2024-01-16T06:20:03;94824.78;;;1.75;78.59
78168;BME280;67410;42.698;23.378;2024-01-16T06:22:30;94828.63;;;1.79;78.62
78168;BME280;67410;42.698;23.378;2024-01-16T06:24:56;94839.19;;;1.92;78.32
78168;BME280;67410;42.698;23.378;2024-01-16T06:27:22;94844.81;;;1.96;77.37
78168;BME280;67410;42.698;23.378;2024-01-16T06:29:48;94844.22;;;1.79;78.19
78168;BME280;67410;42.698;23.378;2024-01-16T06:32:15;94843.03;;;1.82;78.00
78168;BME280;67410;42.698;23.378;2024-01-16T06:34:41;94848.66;;;1.70;77.65
78168;BME280;67410;42.698;23.378;2024-01-16T06:37:07;94863.00;;;1.81;77.88
78168;BME280;67410;42.698;23.378;2024-01-16T06:39:34;94859.44;;;1.82;77.33
78168;BME280;67410;42.698;23.378;2024-01-16T06:42:02;94862.53;;;1.78;77.36
78168;BME280;67410;42.698;23.378;2024-01-16T06:44:30;94865.16;;;1.78;76.86
78168;BME280;67410;42.698;23.378;2024-01-16T06:46:56;94880.00;;;1.84;76.47
78168;BME280;67410;42.698;23.378;2024-01-16T06:49:22;94895.03;;;1.74;77.32
78168;BME280;67410;42.698;23.378;2024-01-16T06:51:48;94901.47;;;1.78;76.36
78168;BME280;67410;42.698;23.378;2024-01-16T06:54:14;94904.88;;;1.78;76.70
78168;BME280;67410;42.698;23.378;2024-01-16T06:56:40;94912.66;;;1.78;76.34
78168;BME280;67410;42.698;23.378;2024-01-16T06:59:07;94898.22;;;1.61;76.66
78168;BME280;67410;42.698;23.378;2024-01-16T07:01:33;94921.50;;;1.69;76.94
78168;BME280;67410;42.698;23.378;2024-01-16T07:03:59;94926.16;;;1.74;76.86
78168;BME280;67410;42.698;23.378;2024-01-16T07:06:25;94935.31;;;1.84;76.48
78168;BME280;67410;42.698;23.378;2024-01-16T07:08:51;94927.53;;;1.84;75.61
78168;BME280;67410;42.698;23.378;2024-01-16T07:11:17;94935.22;;;1.78;76.38
78168;BME280;67410;42.698;23.378;2024-01-16T07:13:43;94940.81;;;1.66;76.82
78168;BME280;67410;42.698;23.378;2024-01-16T07:16:10;94948.00;;;1.79;76.51
78168;BME280;67410;42.698;23.378;2024-01-16T07:18:38;94964.00;;;1.68;76.77
78168;BME280;67410;42.698;23.378;2024-01-16T07:21:04;94969.25;;;1.60;77.22
78168;BME280;67410;42.698;23.378;2024-01-16T07:23:30;94969.38;;;1.44;77.10
78168;BME280;67410;42.698;23.378;2024-01-16T07:25:56;94988.28;;;1.52;77.01
78168;BME280;67410;42.698;23.378;2024-01-16T07:28:22;95005.13;;;1.56;77.38
78168;BME280;67410;42.698;23.378;2024-01-16T07:30:49;95008.22;;;1.52;77.54
78168;BME280;67410;42.698;23.378;2024-01-16T07:33:15;95012.09;;;1.56;77.42
78168;BME280;67410;42.698;23.378;2024-01-16T07:35:41;95008.69;;;1.55;77.14
78168;BME280;67410;42.698;23.378;2024-01-16T07:38:09;95015.66;;;1.55;77.19
78168;BME280;67410;42.698;23.378;2024-01-16T07:40:35;95018.56;;;1.60;76.70
78168;BME280;67410;42.698;23.378;2024-01-16T07:43:01;95028.59;;;1.63;76.01
78168;BME280;67410;42.698;23.378;2024-01-16T07:45:28;95021.88;;;1.68;75.99
78168;BME280;67410;42.698;23.378;2024-01-16T07:47:54;95031.56;;;1.52;76.91
78168;BME280;67410;42.698;23.378;2024-01-16T07:50:20;95035.84;;;1.67;76.15
78168;BME280;67410;42.698;23.378;2024-01-16T07:52:46;95048.53;;;1.62;76.96
78168;BME280;67410;42.698;23.378;2024-01-16T07:55:12;95045.06;;;1.70;76.59
78168;BME280;67410;42.698;23.378;2024-01-16T07:57:38;95048.59;;;1.77;76.98
78168;BME280;67410;42.698;23.378;2024-01-16T08:00:04;95052.75;;;1.63;76.74
78168;BME280;67410;42.698;23.378;2024-01-16T08:02:34;95065.16;;;1.76;76.86
78168;BME280;67410;42.698;23.378;2024-01-16T08:05:00;95071.31;;;1.75;76.97
78168;BME280;67410;42.698;23.378;2024-01-16T08:07:27;95090.28;;;1.76;76.13
78168;BME280;67410;42.698;23.378;2024-01-16T08:09:53;95082.03;;;1.72;76.32
78168;BME280;67410;42.698;23.378;2024-01-16T08:12:19;95087.19;;;1.80;76.10
78168;BME280;67410;42.698;23.378;2024-01-16T08:14:45;95090.25;;;1.84;75.72
78168;BME280;67410;42.698;23.378;2024-01-16T08:17:11;95088.75;;;1.89;75.86
78168;BME280;67410;42.698;23.378;2024-01-16T08:19:37;95092.50;;;1.64;76.38
78168;BME280;67410;42.698;23.378;2024-01-16T08:22:04;95106.63;;;1.84;76.86
78168;BME280;67410;42.698;23.378;2024-01-16T08:24:31;95110.44;;;1.96;76.05
78168;BME280;67410;42.698;23.378;2024-01-16T08:26:57;95118.63;;;2.08;76.39
78168;BME280;67410;42.698;23.378;2024-01-16T08:29:24;95122.97;;;2.16;75.95
78168;BME280;67410;42.698;23.378;2024-01-16T08:31:50;95121.75;;;2.26;74.89
78168;BME280;67410;42.698;23.378;2024-01-16T08:34:19;95134.69;;;2.34;74.21
78168;BME280;67410;42.698;23.378;2024-01-16T08:36:47;95132.28;;;2.48;72.79
78168;BME280;67410;42.698;23.378;2024-01-16T08:39:13;95137.88;;;2.45;72.17
78168;BME280;67410;42.698;23.378;2024-01-16T08:41:39;95140.22;;;2.31;74.42
78168;BME280;67410;42.698;23.378;2024-01-16T08:44:05;95139.41;;;2.31;72.22
78168;BME280;67410;42.698;23.378;2024-01-16T08:46:32;95148.06;;;2.23;74.04
78168;BME280;67410;42.698;23.378;2024-01-16T08:48:59;95151.59;;;2.30;73.44
78168;BME280;67410;42.698;23.378;2024-01-16T08:51:25;95156.84;;;2.22;72.07
78168;BME280;67410;42.698;23.378;2024-01-16T08:53:51;95163.13;;;2.28;71.75
78168;BME280;67410;42.698;23.378;2024-01-16T08:56:17;95164.97;;;2.19;72.16
78168;BME280;67410;42.698;23.378;2024-01-16T08:58:44;95164.88;;;2.13;72.62
78168;BME280;67410;42.698;23.378;2024-01-16T09:01:10;95172.66;;;1.82;72.85
78168;BME280;67410;42.698;23.378;2024-01-16T09:03:36;95182.97;;;1.98;73.18
78168;BME280;67410;42.698;23.378;2024-01-16T09:06:02;95177.19;;;1.88;72.32
78168;BME280;67410;42.698;23.378;2024-01-16T09:08:28;95178.81;;;1.89;73.36
78168;BME280;67410;42.698;23.378;2024-01-16T09:10:56;95175.69;;;1.93;72.62
78168;BME280;67410;42.698;23.378;2024-01-16T09:13:22;95177.25;;;2.02;72.01
78168;BME280;67410;42.698;23.378;2024-01-16T09:15:49;95188.63;;;2.01;72.82
78168;BME280;67410;42.698;23.378;2024-01-16T09:18:16;95197.00;;;2.12;72.60
78168;BME280;67410;42.698;23.378;2024-01-16T09:20:43;95188.88;;;2.15;71.17
78168;BME280;67410;42.698;23.378;2024-01-16T09:23:09;95186.56;;;2.20;71.38
78168;BME280;67410;42.698;23.378;2024-01-16T09:25:35;95194.81;;;2.23;70.69
78168;BME280;67410;42.698;23.378;2024-01-16T09:28:01;95203.38;;;2.01;71.30
78168;BME280;67410;42.698;23.378;2024-01-16T09:30:27;95208.94;;;2.21;71.09
78168;BME280;67410;42.698;23.378;2024-01-16T09:32:54;95203.84;;;2.35;71.05
78168;BME280;67410;42.698;23.378;2024-01-16T09:35:20;95212.44;;;2.59;70.93
78168;BME280;67410;42.698;23.378;2024-01-16T09:37:48;95202.91;;;2.51;69.97
78168;BME280;67410;42.698;23.378;2024-01-16T09:40:14;95191.44;;;2.46;70.07
78168;BME280;67410;42.698;23.378;2024-01-16T09:42:40;95193.63;;;2.34;70.27
78168;BME280;67410;42.698;23.378;2024-01-16T09:45:08;95186.13;;;2.62;68.91
78168;BME280;67410;42.698;23.378;2024-01-16T09:47:35;95202.47;;;2.70;68.55
78168;BME280;67410;42.698;23.378;2024-01-16T09:50:03;95204.75;;;2.88;68.06
78168;BME280;67410;42.698;23.378;2024-01-16T09:52:30;95198.56;;;2.89;68.20
78168;BME280;67410;42.698;23.378;2024-01-16T09:54:56;95204.41;;;2.91;67.55
78168;BME280;67410;42.698;23.378;2024-01-16T09:57:25;95210.75;;;2.89;67.35
78168;BME280;67410;42.698;23.378;2024-01-16T09:59:52;95202.66;;;2.84;67.82
78168;BME280;67410;42.698;23.378;2024-01-16T10:02:19;95213.47;;;3.10;66.38
78168;BME280;67410;42.698;23.378;2024-01-16T10:04:46;95208.91;;;3.12;66.21
78168;BME280;67410;42.698;23.378;2024-01-16T10:07:14;95200.59;;;4.69;63.31
78168;BME280;67410;42.698;23.378;2024-01-16T10:09:42;95191.91;;;5.32;60.19
78168;BME280;67410;42.698;23.378;2024-01-16T10:12:09;95203.16;;;5.67;59.62
78168;BME280;67410;42.698;23.378;2024-01-16T10:14:37;95201.22;;;5.83;56.05
78168;BME280;67410;42.698;23.378;2024-01-16T10:17:05;95203.63;;;5.15;58.12
78168;BME280;67410;42.698;23.378;2024-01-16T10:19:52;95194.97;;;4.87;60.25
78168;BME280;67410;42.698;23.378;2024-01-16T10:22:21;95211.84;;;5.12;58.86
78168;BME280;67410;42.698;23.378;2024-01-16T10:24:48;95198.63;;;5.20;58.22
78168;BME280;67410;42.698;23.378;2024-01-16T10:27:18;95215.78;;;4.80;59.65
78168;BME280;67410;42.698;23.378;2024-01-16T10:29:57;95209.88;;;4.50;59.82
78168;BME280;67410;42.698;23.378;2024-01-16T10:32:34;95208.47;;;4.97;58.02
78168;BME280;67410;42.698;23.378;2024-01-16T10:35:19;95211.78;;;5.33;56.66
78168;BME280;67410;42.698;23.378;2024-01-16T10:37:48;95218.50;;;4.72;59.06
78168;BME280;67410;42.698;23.378;2024-01-16T10:42:45;95213.97;;;4.59;60.52
78168;BME280;67410;42.698;23.378;2024-01-16T10:45:18;95229.63;;;4.81;57.59
78168;BME280;67410;42.698;23.378;2024-01-16T10:47:49;95225.75;;;4.98;57.82
78168;BME280;67410;42.698;23.378;2024-01-16T10:50:15;95233.47;;;5.62;56.48
78168;BME280;67410;42.698;23.378;2024-01-16T10:52:47;95224.31;;;5.44;56.42
78168;BME280;67410;42.698;23.378;2024-01-16T10:55:22;95226.94;;;5.51;56.41
78168;BME280;67410;42.698;23.378;2024-01-16T10:57:51;95219.25;;;5.36;55.76
78168;BME280;67410;42.698;23.378;2024-01-16T11:00:20;95211.47;;;5.15;57.51
78168;BME280;67410;42.698;23.378;2024-01-16T11:03:11;95220.94;;;5.23;58.27
78168;BME280;67410;42.698;23.378;2024-01-16T11:05:42;95217.00;;;5.33;58.21
78168;BME280;67410;42.698;23.378;2024-01-16T11:08:09;95219.91;;;5.17;57.66
78168;BME280;67410;42.698;23.378;2024-01-16T11:10:40;95230.34;;;4.96;57.46
78168;BME280;67410;42.698;23.378;2024-01-16T11:13:07;95227.81;;;4.81;59.13
78168;BME280;67410;42.698;23.378;2024-01-16T11:15:33;95230.91;;;4.70;59.46
78168;BME280;67410;42.698;23.378;2024-01-16T11:18:01;95245.28;;;4.81;58.90
78168;BME280;67410;42.698;23.378;2024-01-16T11:20:28;95242.72;;;4.87;57.17
78168;BME280;67410;42.698;23.378;2024-01-16T11:22:55;95237.19;;;4.75;58.36
78168;BME280;67410;42.698;23.378;2024-01-16T11:25:34;95236.34;;;4.90;57.68
78168;BME280;67410;42.698;23.378;2024-01-16T11:28:11;95231.53;;;4.72;59.61
78168;BME280;67410;42.698;23.378;2024-01-16T11:30:38;95244.50;;;4.65;58.82
78168;BME280;67410;42.698;23.378;2024-01-16T11:33:04;95235.81;;;4.37;60.16
78168;BME280;67410;42.698;23.378;2024-01-16T11:35:35;95249.31;;;4.83;58.50
78168;BME280;67410;42.698;23.378;2024-01-16T11:38:15;95248.69;;;4.60;57.30
78168;BME280;67410;42.698;23.378;2024-01-16T11:40:47;95247.25;;;4.57;60.11
78168;BME280;67410;42.698;23.378;2024-01-16T11:46:05;95243.56;;;4.16;62.03
78168;BME280;67410;42.698;23.378;2024-01-16T11:48:31;95245.28;;;3.94;62.89
78168;BME280;67410;42.698;23.378;2024-01-16T11:50:57;95245.22;;;4.02;62.50
78168;BME280;67410;42.698;23.378;2024-01-16T12:01:31;95251.22;;;3.88;63.38
78168;BME280;67410;42.698;23.378;2024-01-16T12:06:31;95250.88;;;4.05;61.89
78168;BME280;67410;42.698;23.378;2024-01-16T12:09:13;95243.59;;;4.01;62.07
78168;BME280;67410;42.698;23.378;2024-01-16T12:11:40;95274.84;;;3.71;62.39
78168;BME280;67410;42.698;23.378;2024-01-16T12:14:09;95268.75;;;3.79;63.55
78168;BME280;67410;42.698;23.378;2024-01-16T12:16:36;95284.53;;;3.92;61.40
78168;BME280;67410;42.698;23.378;2024-01-16T12:19:10;95283.25;;;3.59;62.67
78168;BME280;67410;42.698;23.378;2024-01-16T12:21:41;95274.75;;;3.65;61.67
78168;BME280;67410;42.698;23.378;2024-01-16T12:24:08;95273.16;;;3.79;61.02
78168;BME280;67410;42.698;23.378;2024-01-16T12:26:34;95272.25;;;3.71;61.19
78168;BME280;67410;42.698;23.378;2024-01-16T12:29:00;95273.06;;;3.72;60.78
78168;BME280;67410;42.698;23.378;2024-01-16T12:31:27;95280.31;;;3.47;60.75
78168;BME280;67410;42.698;23.378;2024-01-16T12:34:04;95279.59;;;3.16;61.88
78168;BME280;67410;42.698;23.378;2024-01-16T12:36:31;95289.16;;;3.23;62.39
78168;BME280;67410;42.698;23.378;2024-01-16T12:38:57;95283.53;;;3.49;61.77
78168;BME280;67410;42.698;23.378;2024-01-16T12:41:24;95280.06;;;3.71;61.73
78168;BME280;67410;42.698;23.378;2024-01-16T12:43:52;95287.06;;;3.71;62.71
78168;BME280;67410;42.698;23.378;2024-01-16T12:46:18;95294.22;;;3.54;61.43
78168;BME280;67410;42.698;23.378;2024-01-16T12:48:45;95294.53;;;3.36;61.56
78168;BME280;67410;42.698;23.378;2024-01-16T12:51:20;95293.53;;;3.23;62.24
78168;BME280;67410;42.698;23.378;2024-01-16T12:53:48;95289.16;;;3.23;61.56
78168;BME280;67410;42.698;23.378;2024-01-16T12:56:18;95288.56;;;3.51;61.70
78168;BME280;67410;42.698;23.378;2024-01-16T12:58:46;95286.94;;;3.50;61.39
78168;BME280;67410;42.698;23.378;2024-01-16T13:01:26;95283.81;;;3.54;61.52
78168;BME280;67410;42.698;23.378;2024-01-16T13:03:54;95284.34;;;3.64;61.09
78168;BME280;67410;42.698;23.378;2024-01-16T13:06:22;95291.34;;;3.64;61.18
78168;BME280;67410;42.698;23.378;2024-01-16T13:08:49;95292.47;;;3.99;60.45
78168;BME280;67410;42.698;23.378;2024-01-16T13:11:16;95291.56;;;3.92;59.70
78168;BME280;67410;42.698;23.378;2024-01-16T13:13:46;95294.88;;;3.71;61.11
78168;BME280;67410;42.698;23.378;2024-01-16T13:16:32;95297.28;;;3.72;61.27